sensor_id;sensor_type;location;lat;lon;timestamp;temperature;humidity
60353;DHT22;46196;52.970;6.954;2023-04-15T00:00:09;8.50;99.90
60353;DHT22;46196;52.970;6.954;2023-04-15T00:02:36;6.10;99.90
60353;DHT22;46196;52.970;6.954;2023-04-15T00:05:04;7.40;99.90
60353;DHT22;46196;52.970;6.954;2023-04-15T00:07:30;6.90;99.90
60353;DHT22;46196;52.970;6.954;2023-04-15T00:09:56;5.80;99.90
60353;DHT22;46196;52.970;6.954;2023-04-15T00:12:27;6.60;99.90
60353;DHT22;46196;52.970;6.954;2023-04-15T00:14:53;5.50;99.90
60353;DHT22;46196;52.970;6.954;2023-04-15T00:17:19;7.10;99.90
60353;DHT22;46196;52.970;6.954;2023-04-15T00:19:45;6.80;99.90
60353;DHT22;46196;52.970;6.954;2023-04-15T00:22:12;7.00;99.90
60353;DHT22;46196;52.970;6.954;2023-04-15T00:24:38;6.10;99.90
60353;DHT22;46196;52.970;6.954;2023-04-15T00:27:04;6.50;99.90
60353;DHT22;46196;52.970;6.954;2023-04-15T00:29:30;7.30;99.90
60353;DHT22;46196;52.970;6.954;2023-04-15T00:31:56;6.90;99.90
60353;DHT22;46196;52.970;6.954;2023-04-15T00:34:23;7.80;99.90
60353;DHT22;46196;52.970;6.954;2023-04-15T00:36:49;6.60;99.90
60353;DHT22;46196;52.970;6.954;2023-04-15T00:39:16;6.50;99.90
60353;DHT22;46196;52.970;6.954;2023-04-15T00:41:43;8.80;99.90
60353;DHT22;46196;52.970;6.954;2023-04-15T00:44:09;6.60;99.90
60353;DHT22;46196;52.970;6.954;2023-04-15T00:46:36;5.40;99.90
60353;DHT22;46196;52.970;6.954;2023-04-15T00:49:04;6.80;99.90
60353;DHT22;46196;52.970;6.954;2023-04-15T00:51:31;5.90;99.90
60353;DHT22;46196;52.970;6.954;2023-04-15T00:53:59;6.80;99.90
60353;DHT22;46196;52.970;6.954;2023-04-15T00:56:26;5.60;99.90
60353;DHT22;46196;52.970;6.954;2023-04-15T00:58:53;5.40;99.90
60353;DHT22;46196;52.970;6.954;2023-04-15T01:01:23;6.40;99.90
60353;DHT22;46196;52.970;6.954;2023-04-15T01:03:50;5.30;99.90
60353;DHT22;46196;52.970;6.954;2023-04-15T01:06:16;5.70;99.90
60353;DHT22;46196;52.970;6.954;2023-04-15T01:08:43;8.60;99.90
60353;DHT22;46196;52.970;6.954;2023-04-15T01:11:10;5.20;99.90
60353;DHT22;46196;52.970;6.954;2023-04-15T01:13:37;6.10;99.90
60353;DHT22;46196;52.970;6.954;2023-04-15T01:16:03;5.80;99.90
60353;DHT22;46196;52.970;6.954;2023-04-15T01:18:29;5.60;99.90
60353;DHT22;46196;52.970;6.954;2023-04-15T01:35:35;5.10;99.90
60353;DHT22;46196;52.970;6.954;2023-04-15T01:38:07;6.30;99.90
60353;DHT22;46196;52.970;6.954;2023-04-15T01:40:34;5.60;99.90
60353;DHT22;46196;52.970;6.954;2023-04-15T01:43:00;5.50;99.90
60353;DHT22;46196;52.970;6.954;2023-04-15T01:45:27;7.40;99.90
60353;DHT22;46196;52.970;6.954;2023-04-15T01:47:53;5.20;99.90
60353;DHT22;46196;52.970;6.954;2023-04-15T02:04:58;5.20;99.90
60353;DHT22;46196;52.970;6.954;2023-04-15T02:07:24;5.80;99.90
60353;DHT22;46196;52.970;6.954;2023-04-15T02:31:50;5.80;99.90
60353;DHT22;46196;52.970;6.954;2023-04-15T02:34:16;4.90;99.90
60353;DHT22;46196;52.970;6.954;2023-04-15T02:36:42;5.20;99.90
60353;DHT22;46196;52.970;6.954;2023-04-15T02:39:07;8.20;99.90
60353;DHT22;46196;52.970;6.954;2023-04-15T02:41:33;5.10;99.90
60353;DHT22;46196;52.970;6.954;2023-04-15T02:46:25;8.00;99.90
60353;DHT22;46196;52.970;6.954;2023-04-15T02:48:52;5.90;99.90
60353;DHT22;46196;52.970;6.954;2023-04-15T02:51:21;5.50;99.90
60353;DHT22;46196;52.970;6.954;2023-04-15T02:53:47;5.00;99.90
60353;DHT22;46196;52.970;6.954;2023-04-15T02:56:14;4.50;99.90
60353;DHT22;46196;52.970;6.954;2023-04-15T02:58:43;5.90;99.90
60353;DHT22;46196;52.970;6.954;2023-04-15T03:01:09;5.70;99.90
60353;DHT22;46196;52.970;6.954;2023-04-15T03:03:35;5.40;99.90
60353;DHT22;46196;52.970;6.954;2023-04-15T03:06:01;6.00;99.90
60353;DHT22;46196;52.970;6.954;2023-04-15T03:08:27;4.00;99.90
60353;DHT22;46196;52.970;6.954;2023-04-15T03:10:52;5.10;99.90
60353;DHT22;46196;52.970;6.954;2023-04-15T03:15:46;5.20;99.90
60353;DHT22;46196;52.970;6.954;2023-04-15T03:18:12;5.00;99.90
60353;DHT22;46196;52.970;6.954;2023-04-15T03:20:38;5.00;99.90
60353;DHT22;46196;52.970;6.954;2023-04-15T03:23:03;6.80;99.90
60353;DHT22;46196;52.970;6.954;2023-04-15T03:25:29;4.50;99.90
60353;DHT22;46196;52.970;6.954;2023-04-15T03:27:55;6.10;99.90
60353;DHT22;46196;52.970;6.954;2023-04-15T03:30:21;3.70;99.90
60353;DHT22;46196;52.970;6.954;2023-04-15T03:32:47;6.20;99.90
60353;DHT22;46196;52.970;6.954;2023-04-15T03:35:13;5.10;99.90
60353;DHT22;46196;52.970;6.954;2023-04-15T03:37:38;4.40;99.90
60353;DHT22;46196;52.970;6.954;2023-04-15T03:40:05;3.90;99.90
60353;DHT22;46196;52.970;6.954;2023-04-15T03:42:31;4.50;99.90
60353;DHT22;46196;52.970;6.954;2023-04-15T03:44:56;4.10;99.90
60353;DHT22;46196;52.970;6.954;2023-04-15T03:47:22;5.50;99.90
60353;DHT22;46196;52.970;6.954;2023-04-15T03:49:48;5.70;99.90
60353;DHT22;46196;52.970;6.954;2023-04-15T03:52:14;5.50;99.90
60353;DHT22;46196;52.970;6.954;2023-04-15T03:54:40;6.10;99.90
60353;DHT22;46196;52.970;6.954;2023-04-15T03:57:05;6.00;99.90
60353;DHT22;46196;52.970;6.954;2023-04-15T03:59:31;7.50;99.90
60353;DHT22;46196;52.970;6.954;2023-04-15T04:01:57;4.90;99.90
60353;DHT22;46196;52.970;6.954;2023-04-15T04:04:23;4.10;99.90
60353;DHT22;46196;52.970;6.954;2023-04-15T04:06:49;4.50;99.90
60353;DHT22;46196;52.970;6.954;2023-04-15T04:09:14;4.40;99.90
60353;DHT22;46196;52.970;6.954;2023-04-15T04:11:40;4.60;99.90
60353;DHT22;46196;52.970;6.954;2023-04-15T04:14:06;4.40;99.90
60353;DHT22;46196;52.970;6.954;2023-04-15T04:16:32;3.60;99.90
60353;DHT22;46196;52.970;6.954;2023-04-15T04:18:58;6.30;99.90
60353;DHT22;46196;52.970;6.954;2023-04-15T04:21:24;4.90;99.90
60353;DHT22;46196;52.970;6.954;2023-04-15T04:23:51;4.00;99.90
60353;DHT22;46196;52.970;6.954;2023-04-15T04:26:16;4.40;99.90
60353;DHT22;46196;52.970;6.954;2023-04-15T04:28:42;4.20;99.90
60353;DHT22;46196;52.970;6.954;2023-04-15T04:31:08;6.60;99.90
60353;DHT22;46196;52.970;6.954;2023-04-15T04:33:34;3.50;99.90
60353;DHT22;46196;52.970;6.954;2023-04-15T04:36:00;4.60;99.90
60353;DHT22;46196;52.970;6.954;2023-04-15T04:38:26;4.70;99.90
60353;DHT22;46196;52.970;6.954;2023-04-15T04:40:55;5.80;99.90
60353;DHT22;46196;52.970;6.954;2023-04-15T04:43:21;4.50;99.90
60353;DHT22;46196;52.970;6.954;2023-04-15T04:45:46;4.10;99.90
60353;DHT22;46196;52.970;6.954;2023-04-15T04:48:12;4.50;99.90
60353;DHT22;46196;52.970;6.954;2023-04-15T04:50:38;4.80;99.90
60353;DHT22;46196;52.970;6.954;2023-04-15T04:53:08;3.20;99.90
60353;DHT22;46196;52.970;6.954;2023-04-15T04:55:34;3.90;99.90
60353;DHT22;46196;52.970;6.954;2023-04-15T04:58:02;3.90;99.90
60353;DHT22;46196;52.970;6.954;2023-04-15T05:00:28;5.70;99.90
60353;DHT22;46196;52.970;6.954;2023-04-15T05:02:54;4.60;99.90
60353;DHT22;46196;52.970;6.954;2023-04-15T05:05:20;4.90;99.90
60353;DHT22;46196;52.970;6.954;2023-04-15T05:07:46;6.70;99.90
60353;DHT22;46196;52.970;6.954;2023-04-15T05:10:14;3.00;99.90
60353;DHT22;46196;52.970;6.954;2023-04-15T05:12:42;2.70;99.90
60353;DHT22;46196;52.970;6.954;2023-04-15T05:15:09;4.60;99.90
60353;DHT22;46196;52.970;6.954;2023-04-15T05:17:35;5.50;99.90
60353;DHT22;46196;52.970;6.954;2023-04-15T05:20:01;4.60;99.90
60353;DHT22;46196;52.970;6.954;2023-04-15T05:22:27;5.30;99.90
60353;DHT22;46196;52.970;6.954;2023-04-15T05:24:53;3.80;99.90
60353;DHT22;46196;52.970;6.954;2023-04-15T05:27:19;6.60;99.90
60353;DHT22;46196;52.970;6.954;2023-04-15T05:29:47;5.40;99.90
60353;DHT22;46196;52.970;6.954;2023-04-15T05:32:13;2.70;99.90
60353;DHT22;46196;52.970;6.954;2023-04-15T05:34:39;5.80;99.90
60353;DHT22;46196;52.970;6.954;2023-04-15T05:37:04;4.60;99.90
60353;DHT22;46196;52.970;6.954;2023-04-15T05:39:30;6.10;99.90
60353;DHT22;46196;52.970;6.954;2023-04-15T05:41:57;4.50;99.90
60353;DHT22;46196;52.970;6.954;2023-04-15T05:46:51;4.40;99.90
60353;DHT22;46196;52.970;6.954;2023-04-15T05:49:18;5.00;99.90
60353;DHT22;46196;52.970;6.954;2023-04-15T05:51:43;4.50;99.90
60353;DHT22;46196;52.970;6.954;2023-04-15T05:56:36;5.20;99.90
60353;DHT22;46196;52.970;6.954;2023-04-15T05:59:02;7.20;99.90
60353;DHT22;46196;52.970;6.954;2023-04-15T06:01:28;5.20;99.90
60353;DHT22;46196;52.970;6.954;2023-04-15T06:03:55;5.50;99.90
60353;DHT22;46196;52.970;6.954;2023-04-15T06:06:21;5.90;99.90
60353;DHT22;46196;52.970;6.954;2023-04-15T06:08:47;5.70;99.90
60353;DHT22;46196;52.970;6.954;2023-04-15T06:11:13;5.80;99.90
60353;DHT22;46196;52.970;6.954;2023-04-15T06:13:39;4.90;99.90
60353;DHT22;46196;52.970;6.954;2023-04-15T06:16:05;6.40;99.90
60353;DHT22;46196;52.970;6.954;2023-04-15T06:18:31;5.10;99.90
60353;DHT22;46196;52.970;6.954;2023-04-15T06:20:57;6.60;99.90
60353;DHT22;46196;52.970;6.954;2023-04-15T06:23:23;5.80;99.90
60353;DHT22;46196;52.970;6.954;2023-04-15T06:25:49;5.50;99.90
60353;DHT22;46196;52.970;6.954;2023-04-15T06:28:18;5.90;99.90
60353;DHT22;46196;52.970;6.954;2023-04-15T06:30:54;8.80;99.90
60353;DHT22;46196;52.970;6.954;2023-04-15T06:33:23;6.70;99.90
60353;DHT22;46196;52.970;6.954;2023-04-15T06:35:48;8.10;99.90
60353;DHT22;46196;52.970;6.954;2023-04-15T06:38:14;6.90;99.90
60353;DHT22;46196;52.970;6.954;2023-04-15T06:40:41;8.20;99.90
60353;DHT22;46196;52.970;6.954;2023-04-15T06:43:07;7.10;99.90
60353;DHT22;46196;52.970;6.954;2023-04-15T06:45:33;6.50;99.90
60353;DHT22;46196;52.970;6.954;2023-04-15T06:47:59;6.70;99.90
60353;DHT22;46196;52.970;6.954;2023-04-15T06:50:25;6.00;99.90
60353;DHT22;46196;52.970;6.954;2023-04-15T06:52:54;7.40;99.90
60353;DHT22;46196;52.970;6.954;2023-04-15T06:55:20;6.70;99.90
60353;DHT22;46196;52.970;6.954;2023-04-15T06:57:46;7.50;99.90
60353;DHT22;46196;52.970;6.954;2023-04-15T07:00:13;7.00;99.90
60353;DHT22;46196;52.970;6.954;2023-04-15T07:02:38;7.70;99.90
60353;DHT22;46196;52.970;6.954;2023-04-15T07:05:05;7.80;99.90
60353;DHT22;46196;52.970;6.954;2023-04-15T07:07:32;6.90;99.90
60353;DHT22;46196;52.970;6.954;2023-04-15T07:09:57;8.00;99.90
60353;DHT22;46196;52.970;6.954;2023-04-15T07:12:23;8.10;99.90
60353;DHT22;46196;52.970;6.954;2023-04-15T07:14:49;8.20;99.90
60353;DHT22;46196;52.970;6.954;2023-04-15T07:17:15;8.30;99.90
60353;DHT22;46196;52.970;6.954;2023-04-15T07:19:42;8.40;99.90
60353;DHT22;46196;52.970;6.954;2023-04-15T07:22:08;8.40;99.90
60353;DHT22;46196;52.970;6.954;2023-04-15T07:24:34;8.50;99.90
60353;DHT22;46196;52.970;6.954;2023-04-15T07:27:00;8.60;99.90
60353;DHT22;46196;52.970;6.954;2023-04-15T07:29:26;8.70;99.90
60353;DHT22;46196;52.970;6.954;2023-04-15T07:31:52;8.80;99.90
60353;DHT22;46196;52.970;6.954;2023-04-15T07:34:18;8.90;99.90
60353;DHT22;46196;52.970;6.954;2023-04-15T07:36:45;9.00;99.90
60353;DHT22;46196;52.970;6.954;2023-04-15T07:39:15;9.10;99.90
60353;DHT22;46196;52.970;6.954;2023-04-15T07:41:41;9.20;99.90
60353;DHT22;46196;52.970;6.954;2023-04-15T07:44:07;9.30;99.90
60353;DHT22;46196;52.970;6.954;2023-04-15T07:46:32;9.40;99.90
60353;DHT22;46196;52.970;6.954;2023-04-15T07:48:58;9.50;99.90
60353;DHT22;46196;52.970;6.954;2023-04-15T07:51:24;9.50;99.90
60353;DHT22;46196;52.970;6.954;2023-04-15T07:53:50;9.60;99.90
60353;DHT22;46196;52.970;6.954;2023-04-15T07:56:16;10.40;99.90
60353;DHT22;46196;52.970;6.954;2023-04-15T07:58:42;9.60;99.90
60353;DHT22;46196;52.970;6.954;2023-04-15T08:01:08;9.60;99.90
60353;DHT22;46196;52.970;6.954;2023-04-15T08:03:34;9.70;99.90
60353;DHT22;46196;52.970;6.954;2023-04-15T08:06:00;9.80;99.90
60353;DHT22;46196;52.970;6.954;2023-04-15T08:08:26;9.80;99.90
60353;DHT22;46196;52.970;6.954;2023-04-15T08:10:51;9.90;99.90
60353;DHT22;46196;52.970;6.954;2023-04-15T08:13:17;9.90;99.90
60353;DHT22;46196;52.970;6.954;2023-04-15T08:15:43;9.90;99.90
60353;DHT22;46196;52.970;6.954;2023-04-15T08:18:10;9.90;99.90
60353;DHT22;46196;52.970;6.954;2023-04-15T08:20:35;9.90;99.90
60353;DHT22;46196;52.970;6.954;2023-04-15T08:23:02;9.90;99.90
60353;DHT22;46196;52.970;6.954;2023-04-15T08:25:29;9.90;99.90
60353;DHT22;46196;52.970;6.954;2023-04-15T08:27:55;9.90;99.90
60353;DHT22;46196;52.970;6.954;2023-04-15T08:30:22;9.90;99.90
60353;DHT22;46196;52.970;6.954;2023-04-15T08:32:49;9.80;99.90
60353;DHT22;46196;52.970;6.954;2023-04-15T08:35:15;9.80;99.90
60353;DHT22;46196;52.970;6.954;2023-04-15T08:37:41;9.70;99.90
60353;DHT22;46196;52.970;6.954;2023-04-15T08:40:07;9.70;99.90
60353;DHT22;46196;52.970;6.954;2023-04-15T08:42:43;9.70;99.90
60353;DHT22;46196;52.970;6.954;2023-04-15T08:45:09;9.70;99.90
60353;DHT22;46196;52.970;6.954;2023-04-15T08:47:38;9.70;99.90
60353;DHT22;46196;52.970;6.954;2023-04-15T08:50:08;9.80;99.90
60353;DHT22;46196;52.970;6.954;2023-04-15T08:52:34;10.10;99.90
60353;DHT22;46196;52.970;6.954;2023-04-15T08:55:01;9.80;99.90
60353;DHT22;46196;52.970;6.954;2023-04-15T08:57:28;9.80;99.90
60353;DHT22;46196;52.970;6.954;2023-04-15T08:59:57;9.90;99.90
60353;DHT22;46196;52.970;6.954;2023-04-15T09:02:24;9.80;99.90
60353;DHT22;46196;52.970;6.954;2023-04-15T09:04:52;9.80;99.90
60353;DHT22;46196;52.970;6.954;2023-04-15T09:07:18;9.70;99.90
60353;DHT22;46196;52.970;6.954;2023-04-15T09:09:44;9.80;99.90
60353;DHT22;46196;52.970;6.954;2023-04-15T09:12:11;8.00;99.90
60353;DHT22;46196;52.970;6.954;2023-04-15T09:14:39;9.80;99.90
60353;DHT22;46196;52.970;6.954;2023-04-15T09:17:05;11.50;99.90
60353;DHT22;46196;52.970;6.954;2023-04-15T09:19:34;10.10;99.90
60353;DHT22;46196;52.970;6.954;2023-04-15T09:22:01;10.10;99.90
60353;DHT22;46196;52.970;6.954;2023-04-15T09:24:38;10.20;99.90
60353;DHT22;46196;52.970;6.954;2023-04-15T09:27:05;10.40;99.90
60353;DHT22;46196;52.970;6.954;2023-04-15T09:29:31;11.20;99.90
60353;DHT22;46196;52.970;6.954;2023-04-15T09:32:09;10.50;99.90
60353;DHT22;46196;52.970;6.954;2023-04-15T09:34:35;10.40;99.90
60353;DHT22;46196;52.970;6.954;2023-04-15T09:37:02;10.40;99.90
60353;DHT22;46196;52.970;6.954;2023-04-15T09:39:47;10.40;99.90
60353;DHT22;46196;52.970;6.954;2023-04-15T09:42:14;10.30;99.90
60353;DHT22;46196;52.970;6.954;2023-04-15T09:44:42;10.30;99.90
60353;DHT22;46196;52.970;6.954;2023-04-15T09:47:08;10.20;99.90
60353;DHT22;46196;52.970;6.954;2023-04-15T09:49:34;10.20;99.90
60353;DHT22;46196;52.970;6.954;2023-04-15T09:52:00;9.70;99.90
60353;DHT22;46196;52.970;6.954;2023-04-15T09:54:37;10.20;99.90
60353;DHT22;46196;52.970;6.954;2023-04-15T09:57:07;9.40;99.90
60353;DHT22;46196;52.970;6.954;2023-04-15T09:59:33;10.20;99.90
60353;DHT22;46196;52.970;6.954;2023-04-15T10:01:59;10.20;99.90
60353;DHT22;46196;52.970;6.954;2023-04-15T10:04:26;10.20;99.90
60353;DHT22;46196;52.970;6.954;2023-04-15T10:06:53;10.20;99.90
60353;DHT22;46196;52.970;6.954;2023-04-15T10:09:19;10.20;99.90
60353;DHT22;46196;52.970;6.954;2023-04-15T10:11:45;10.20;99.90
60353;DHT22;46196;52.970;6.954;2023-04-15T10:14:13;10.30;99.90
60353;DHT22;46196;52.970;6.954;2023-04-15T10:16:40;10.30;99.90
60353;DHT22;46196;52.970;6.954;2023-04-15T10:19:08;10.30;99.90
60353;DHT22;46196;52.970;6.954;2023-04-15T10:21:36;10.30;99.90
60353;DHT22;46196;52.970;6.954;2023-04-15T10:24:02;10.20;99.90
60353;DHT22;46196;52.970;6.954;2023-04-15T10:26:29;11.10;99.90
60353;DHT22;46196;52.970;6.954;2023-04-15T10:28:55;10.20;99.90
60353;DHT22;46196;52.970;6.954;2023-04-15T10:31:21;10.30;99.90
60353;DHT22;46196;52.970;6.954;2023-04-15T10:33:48;10.30;99.90
60353;DHT22;46196;52.970;6.954;2023-04-15T10:36:15;10.20;99.90
60353;DHT22;46196;52.970;6.954;2023-04-15T10:38:44;11.10;99.90
60353;DHT22;46196;52.970;6.954;2023-04-15T10:41:24;10.10;99.90
60353;DHT22;46196;52.970;6.954;2023-04-15T10:52:31;10.10;99.90
60353;DHT22;46196;52.970;6.954;2023-04-15T10:55:15;10.10;99.90
60353;DHT22;46196;52.970;6.954;2023-04-15T10:57:51;10.10;99.90
60353;DHT22;46196;52.970;6.954;2023-04-15T11:00:24;10.10;99.90
60353;DHT22;46196;52.970;6.954;2023-04-15T11:03:07;10.90;99.90
60353;DHT22;46196;52.970;6.954;2023-04-15T11:08:11;11.30;99.90
60353;DHT22;46196;52.970;6.954;2023-04-15T11:13:14;10.00;99.90
60353;DHT22;46196;52.970;6.954;2023-04-15T11:15:46;10.80;99.90
60353;DHT22;46196;52.970;6.954;2023-04-15T11:18:15;10.00;99.90
60353;DHT22;46196;52.970;6.954;2023-04-15T11:20:42;10.00;99.90
60353;DHT22;46196;52.970;6.954;2023-04-15T11:23:12;9.20;99.90
60353;DHT22;46196;52.970;6.954;2023-04-15T11:25:39;10.00;99.90
60353;DHT22;46196;52.970;6.954;2023-04-15T11:28:05;11.00;99.90
60353;DHT22;46196;52.970;6.954;2023-04-15T11:30:36;10.00;99.90
60353;DHT22;46196;52.970;6.954;2023-04-15T11:33:04;10.10;99.90
60353;DHT22;46196;52.970;6.954;2023-04-15T11:35:30;11.30;99.90
60353;DHT22;46196;52.970;6.954;2023-04-15T11:37:56;10.10;99.90
60353;DHT22;46196;52.970;6.954;2023-04-15T11:40:24;10.10;99.90
60353;DHT22;46196;52.970;6.954;2023-04-15T11:45:30;10.10;99.90
60353;DHT22;46196;52.970;6.954;2023-04-15T11:48:07;10.10;99.90
60353;DHT22;46196;52.970;6.954;2023-04-15T11:50:34;10.20;99.90
60353;DHT22;46196;52.970;6.954;2023-04-15T11:53:02;10.20;99.90
60353;DHT22;46196;52.970;6.954;2023-04-15T11:55:29;10.20;99.90
60353;DHT22;46196;52.970;6.954;2023-04-15T12:00:35;10.30;99.90
60353;DHT22;46196;52.970;6.954;2023-04-15T12:06:07;10.40;99.90
60353;DHT22;46196;52.970;6.954;2023-04-15T12:11:16;10.30;99.90
60353;DHT22;46196;52.970;6.954;2023-04-15T12:13:47;10.30;99.90
60353;DHT22;46196;52.970;6.954;2023-04-15T12:16:20;10.20;99.90
60353;DHT22;46196;52.970;6.954;2023-04-15T12:18:54;10.20;99.90
60353;DHT22;46196;52.970;6.954;2023-04-15T12:21:32;10.10;99.90
60353;DHT22;46196;52.970;6.954;2023-04-15T12:24:02;10.10;99.90
60353;DHT22;46196;52.970;6.954;2023-04-15T12:26:36;10.60;99.90
60353;DHT22;46196;52.970;6.954;2023-04-15T12:29:06;8.50;99.90
60353;DHT22;46196;52.970;6.954;2023-04-15T12:31:36;10.90;99.90
60353;DHT22;46196;52.970;6.954;2023-04-15T12:34:03;10.00;99.90
60353;DHT22;46196;52.970;6.954;2023-04-15T12:36:32;10.00;99.90
60353;DHT22;46196;52.970;6.954;2023-04-15T12:39:04;10.70;99.90
60353;DHT22;46196;52.970;6.954;2023-04-15T12:41:33;10.00;99.90
60353;DHT22;46196;52.970;6.954;2023-04-15T12:43:59;10.00;99.90
60353;DHT22;46196;52.970;6.954;2023-04-15T12:46:26;9.50;99.90
60353;DHT22;46196;52.970;6.954;2023-04-15T12:48:52;10.00;99.90
60353;DHT22;46196;52.970;6.954;2023-04-15T12:51:18;10.00;99.90
60353;DHT22;46196;52.970;6.954;2023-04-15T12:53:45;10.00;99.90
60353;DHT22;46196;52.970;6.954;2023-04-15T12:56:12;10.00;99.90
60353;DHT22;46196;52.970;6.954;2023-04-15T12:58:38;10.00;99.90
60353;DHT22;46196;52.970;6.954;2023-04-15T13:01:04;9.90;99.90
60353;DHT22;46196;52.970;6.954;2023-04-15T13:03:31;9.80;99.90
60353;DHT22;46196;52.970;6.954;2023-04-15T13:05:56;9.80;99.90
60353;DHT22;46196;52.970;6.954;2023-04-15T13:08:22;10.70;99.90
60353;DHT22;46196;52.970;6.954;2023-04-15T13:10:48;9.80;99.90
60353;DHT22;46196;52.970;6.954;2023-04-15T13:13:14;9.70;99.90
60353;DHT22;46196;52.970;6.954;2023-04-15T13:15:40;9.70;99.90
60353;DHT22;46196;52.970;6.954;2023-04-15T13:18:06;9.00;99.90
60353;DHT22;46196;52.970;6.954;2023-04-15T13:20:32;9.60;99.90
60353;DHT22;46196;52.970;6.954;2023-04-15T13:22:58;9.50;99.90
60353;DHT22;46196;52.970;6.954;2023-04-15T13:25:24;9.10;99.90
60353;DHT22;46196;52.970;6.954;2023-04-15T13:27:50;9.50;99.90
60353;DHT22;46196;52.970;6.954;2023-04-15T13:30:16;9.50;99.90
60353;DHT22;46196;52.970;6.954;2023-04-15T13:32:43;9.50;99.90
60353;DHT22;46196;52.970;6.954;2023-04-15T13:35:08;9.40;99.90
60353;DHT22;46196;52.970;6.954;2023-04-15T13:37:34;9.70;99.90
60353;DHT22;46196;52.970;6.954;2023-04-15T13:40:00;9.40;99.90
60353;DHT22;46196;52.970;6.954;2023-04-15T13:42:26;9.40;99.90
60353;DHT22;46196;52.970;6.954;2023-04-15T13:44:52;9.40;99.90
60353;DHT22;46196;52.970;6.954;2023-04-15T13:47:21;9.40;99.90
60353;DHT22;46196;52.970;6.954;2023-04-15T13:49:46;9.20;99.90
60353;DHT22;46196;52.970;6.954;2023-04-15T13:52:12;9.30;99.90
60353;DHT22;46196;52.970;6.954;2023-04-15T13:54:38;9.30;99.90
60353;DHT22;46196;52.970;6.954;2023-04-15T13:57:04;9.30;99.90
60353;DHT22;46196;52.970;6.954;2023-04-15T13:59:32;8.90;99.90
60353;DHT22;46196;52.970;6.954;2023-04-15T14:01:58;9.30;99.90
60353;DHT22;46196;52.970;6.954;2023-04-15T14:04:23;9.20;99.90
60353;DHT22;46196;52.970;6.954;2023-04-15T14:06:49;10.40;99.90
60353;DHT22;46196;52.970;6.954;2023-04-15T14:09:16;10.40;99.90
60353;DHT22;46196;52.970;6.954;2023-04-15T14:11:42;9.30;99.90
60353;DHT22;46196;52.970;6.954;2023-04-15T14:14:07;9.30;99.90
60353;DHT22;46196;52.970;6.954;2023-04-15T14:16:33;9.30;99.90
60353;DHT22;46196;52.970;6.954;2023-04-15T14:19:00;9.40;99.90
60353;DHT22;46196;52.970;6.954;2023-04-15T14:21:26;9.30;99.90
60353;DHT22;46196;52.970;6.954;2023-04-15T14:23:56;9.50;99.90
60353;DHT22;46196;52.970;6.954;2023-04-15T14:26:23;9.30;99.90
60353;DHT22;46196;52.970;6.954;2023-04-15T14:28:48;9.30;99.90
60353;DHT22;46196;52.970;6.954;2023-04-15T14:31:14;9.10;99.90
60353;DHT22;46196;52.970;6.954;2023-04-15T14:33:40;9.30;99.90
60353;DHT22;46196;52.970;6.954;2023-04-15T14:36:07;9.20;99.90
60353;DHT22;46196;52.970;6.954;2023-04-15T14:38:34;8.40;99.90
60353;DHT22;46196;52.970;6.954;2023-04-15T14:41:04;9.20;99.90
60353;DHT22;46196;52.970;6.954;2023-04-15T14:43:30;9.20;99.90
60353;DHT22;46196;52.970;6.954;2023-04-15T14:45:56;9.20;99.90
60353;DHT22;46196;52.970;6.954;2023-04-15T14:48:22;8.60;99.90
60353;DHT22;46196;52.970;6.954;2023-04-15T14:50:48;9.10;99.90
60353;DHT22;46196;52.970;6.954;2023-04-15T14:53:14;9.10;99.90
60353;DHT22;46196;52.970;6.954;2023-04-15T14:55:40;9.10;99.90
60353;DHT22;46196;52.970;6.954;2023-04-15T14:58:07;9.10;99.90
60353;DHT22;46196;52.970;6.954;2023-04-15T15:00:34;9.00;99.90
60353;DHT22;46196;52.970;6.954;2023-04-15T15:03:00;8.90;99.90
60353;DHT22;46196;52.970;6.954;2023-04-15T15:05:26;9.00;99.90
60353;DHT22;46196;52.970;6.954;2023-04-15T15:07:52;9.00;99.90
60353;DHT22;46196;52.970;6.954;2023-04-15T15:10:18;9.00;99.90
60353;DHT22;46196;52.970;6.954;2023-04-15T15:12:43;9.00;99.90
60353;DHT22;46196;52.970;6.954;2023-04-15T15:15:10;8.70;99.90
60353;DHT22;46196;52.970;6.954;2023-04-15T15:17:35;9.00;99.90
60353;DHT22;46196;52.970;6.954;2023-04-15T15:20:01;9.00;99.90
60353;DHT22;46196;52.970;6.954;2023-04-15T15:22:28;9.00;99.90
60353;DHT22;46196;52.970;6.954;2023-04-15T15:24:54;9.20;99.90
60353;DHT22;46196;52.970;6.954;2023-04-15T15:27:19;9.00;99.90
60353;DHT22;46196;52.970;6.954;2023-04-15T15:29:45;9.00;99.90
60353;DHT22;46196;52.970;6.954;2023-04-15T15:32:11;8.90;99.90
60353;DHT22;46196;52.970;6.954;2023-04-15T15:34:37;9.90;99.90
60353;DHT22;46196;52.970;6.954;2023-04-15T15:37:03;8.90;99.90
60353;DHT22;46196;52.970;6.954;2023-04-15T15:39:28;8.90;99.90
60353;DHT22;46196;52.970;6.954;2023-04-15T15:41:54;9.00;99.90
60353;DHT22;46196;52.970;6.954;2023-04-15T15:44:20;8.10;99.90
60353;DHT22;46196;52.970;6.954;2023-04-15T15:46:46;8.30;99.90
60353;DHT22;46196;52.970;6.954;2023-04-15T15:49:12;8.10;99.90
60353;DHT22;46196;52.970;6.954;2023-04-15T15:51:38;8.90;99.90
60353;DHT22;46196;52.970;6.954;2023-04-15T15:54:04;8.60;99.90
60353;DHT22;46196;52.970;6.954;2023-04-15T15:56:30;9.00;99.90
60353;DHT22;46196;52.970;6.954;2023-04-15T15:58:56;8.90;99.90
60353;DHT22;46196;52.970;6.954;2023-04-15T16:01:22;8.20;99.90
60353;DHT22;46196;52.970;6.954;2023-04-15T16:03:48;8.90;99.90
60353;DHT22;46196;52.970;6.954;2023-04-15T16:06:13;8.20;99.90
60353;DHT22;46196;52.970;6.954;2023-04-15T16:08:39;10.10;99.90
60353;DHT22;46196;52.970;6.954;2023-04-15T16:11:05;8.90;99.90
60353;DHT22;46196;52.970;6.954;2023-04-15T16:13:31;8.90;99.90
60353;DHT22;46196;52.970;6.954;2023-04-15T16:15:57;8.40;99.90
60353;DHT22;46196;52.970;6.954;2023-04-15T16:18:23;10.50;99.90
60353;DHT22;46196;52.970;6.954;2023-04-15T16:20:49;8.90;99.90
60353;DHT22;46196;52.970;6.954;2023-04-15T16:23:15;8.20;99.90
60353;DHT22;46196;52.970;6.954;2023-04-15T16:25:43;10.20;99.90
60353;DHT22;46196;52.970;6.954;2023-04-15T16:28:09;8.00;99.90
60353;DHT22;46196;52.970;6.954;2023-04-15T16:30:36;8.80;99.90
60353;DHT22;46196;52.970;6.954;2023-04-15T16:33:04;9.60;99.90
60353;DHT22;46196;52.970;6.954;2023-04-15T16:35:30;8.50;99.90
60353;DHT22;46196;52.970;6.954;2023-04-15T16:37:56;9.40;99.90
60353;DHT22;46196;52.970;6.954;2023-04-15T16:40:22;8.80;99.90
60353;DHT22;46196;52.970;6.954;2023-04-15T16:42:49;8.80;99.90
60353;DHT22;46196;52.970;6.954;2023-04-15T16:45:15;10.30;99.90
60353;DHT22;46196;52.970;6.954;2023-04-15T16:47:41;8.80;99.90
60353;DHT22;46196;52.970;6.954;2023-04-15T16:50:08;8.80;99.90
60353;DHT22;46196;52.970;6.954;2023-04-15T16:52:35;8.80;99.90
60353;DHT22;46196;52.970;6.954;2023-04-15T16:55:01;8.80;99.90
60353;DHT22;46196;52.970;6.954;2023-04-15T16:57:26;8.80;99.90
60353;DHT22;46196;52.970;6.954;2023-04-15T16:59:52;7.20;99.90
60353;DHT22;46196;52.970;6.954;2023-04-15T17:02:18;8.70;99.90
60353;DHT22;46196;52.970;6.954;2023-04-15T17:04:44;8.80;99.90